Date,TemperatureHighF,TemperatureAvgF,TemperatureLowF,DewpointHighF,DewpointAvgF,DewpointLowF,HumidityHigh,HumidityAvg,HumidityLow,PressureMaxIn,PressureMinIn,WindSpeedMaxMPH,WindSpeedAvgMPH,GustSpeedMaxMPH,PrecipitationSumIn
2013-5-1,79.2,67.9,58.1,61.5,57.7,53.9,91,71,47,30.29,30.16,5,1,6,0.00
2013-5-2,83.1,67.3,56.3,62.0,56.9,52.2,89,71,47,30.29,30.17,4,1,4,0.00
2013-5-3,77.0,66.9,58.3,59.7,56.6,53.8,87,71,50,30.21,30.05,4,1,5,0.00
2013-5-4,64.4,60.6,58.6,56.1,50.9,41.7,91,71,51,30.06,29.99,4,1,4,0.35
2013-5-5,59.4,55.4,53.4,57.6,54.3,52.2,97,96,94,29.99,29.88,4,1,4,1.11
2013-5-6,63.7,55.6,51.1,54.5,51.3,50.0,97,86,66,30.00,29.86,4,1,6,0.17
2013-5-7,71.1,58.4,49.5,62.1,52.6,47.4,96,82,58,30.05,29.97,4,1,4,0.05
2013-5-8,72.7,62.5,58.3,63.1,58.8,56.3,96,88,67,30.11,30.02,6,1,6,0.01
2013-5-10,73.0,66.5,58.5,64.3,60.3,55.1,94,81,72,30.16,30.02,5,1,5,0.02
2013-5-11,79.5,68.0,59.7,66.8,60.6,51.4,95,79,52,30.09,29.95,4,1,4,0.05
2013-5-12,72.0,59.5,52.0,52.7,40.9,30.1,86,54,22,30.23,30.08,6,2,6,0.00
2013-5-13,74.3,55.9,41.5,41.5,38.5,33.2,87,56,24,30.32,30.21,6,1,6,0.00
2013-5-14,84.2,62.4,43.2,59.6,48.6,38.3,88,63,41,30.31,30.11,8,2,8,0.00
2013-5-15,92.1,73.6,59.0,63.0,58.8,54.2,88,63,34,30.23,30.05,8,2,8,0.00
2013-5-16,87.6,70.7,60.1,65.8,59.8,55.1,86,70,46,30.16,30.05,5,1,5,0.00
2013-5-17,83.5,80.3,75.4,71.4,69.0,64.6,80,69,59,30.14,30.05,2,1,6,0.04
2013-5-18,74.8,69.1,65.7,72.5,67.4,64.5,98,94,88,30.16,30.08,3,0,3,0.54
2013-5-19,71.4,69.1,68.0,70.0,67.7,65.9,98,95,86,30.16,30.08,4,1,8,0.33
2013-5-20,88.0,84.5,78.8,73.2,71.4,70.0,77,65,58,30.12,30.07,3,1,5,0.33
2013-5-21,89.1,74.4,64.9,74.1,68.2,62.7,97,82,56,30.14,30.01,8,1,15,0.02
2013-5-22,86.9,72.3,64.8,72.5,66.6,63.0,96,84,54,30.06,29.92,6,1,8,0.05
2013-5-23,84.2,78.1,70.7,63.6,59.2,55.4,62,52,47,30.07,29.98,5,3,11,0.09
2013-5-24,77.2,66.1,58.8,57.0,50.6,43.0,78,59,35,30.34,30.10,5,2,8,0.00
2013-5-25,82.6,60.2,47.8,52.2,47.6,43.8,89,67,31,30.43,30.30,3,1,5,0.00
2013-5-26,81.1,70.5,62.1,60.8,56.7,53.8,85,63,42,30.38,30.26,2,1,4,0.06
2013-5-27,88.2,71.1,57.2,63.4,58.8,53.0,92,68,42,30.32,30.17,6,1,8,0.00
2013-5-28,88.0,75.0,64.9,67.3,62.9,59.7,88,68,46,30.26,30.15,6,2,8,0.00
2013-5-29,90.1,75.8,62.8,69.3,64.3,58.7,91,69,45,30.30,30.17,6,1,6,0.00
2013-5-30,89.4,77.0,64.2,69.0,65.3,60.6,92,69,45,30.31,30.17,4,1,7,0.00
2013-5-31,89.2,76.5,64.8,67.9,65.0,61.8,93,70,44,30.26,30.13,9,2,13,0.00